Engenho Velho, Brazil
Current Conditions -  °F | °C
As of 4:00 PM on Thursday 30 Oct 2014 (Local Time) from SBCH Reporting Station
Thunderstorm Thunderstorm  
Wind Chill: 68°   Ceiling: 10000
Heat Index: 68°   Visibility: 5mi
Dew Point: 63°   Wind: 14mph
Humidity: 83%   Direction: 140°SE
Pressure: 29.85"   Gusts: NA
Location:  27.71°S, 52.91°W
Report Text: SBCH 301800Z 14012KT 8000 -TSRA SCT006 SCT035 FEW050CB OVC100 20/17 Q1011
Loading
Personal Weather Stations






























Interactive Weather Map
Tropical Storm Tracking
New forecast layout! Learn more

10-Day Weather Forecast

Advertisements
Track Severe Weather on mobile